createdAt,value
2023-03-02T00:01:30.772Z,76.21
2023-03-02T00:04:00.195Z,75.62
2023-03-02T00:06:30.033Z,76.28
2023-03-02T00:09:02.035Z,76.06
2023-03-02T00:11:31.712Z,76.06
2023-03-02T00:13:59.160Z,76.31
2023-03-02T00:16:26.639Z,75.50
2023-03-02T00:18:53.952Z,75.51
2023-03-02T00:21:21.333Z,75.74
2023-03-02T00:23:48.646Z,75.20
2023-03-02T00:26:15.969Z,75.67
2023-03-02T00:28:43.374Z,75.37
2023-03-02T00:31:12.223Z,75.29
2023-03-02T00:33:39.562Z,74.11
2023-03-02T00:36:14.112Z,73.68
2023-03-02T00:38:41.427Z,73.47
2023-03-02T00:41:08.810Z,73.68
2023-03-02T00:43:36.209Z,73.14
2023-03-02T00:46:22.308Z,73.54
2023-03-02T00:48:50.675Z,72.78
2023-03-02T00:51:18.463Z,72.51
2023-03-02T00:53:46.277Z,72.04
2023-03-02T00:56:13.625Z,72.45
2023-03-02T00:58:46.645Z,72.83
2023-03-02T01:01:15.733Z,72.14
2023-03-02T01:03:47.034Z,71.60
2023-03-02T01:06:18.190Z,71.46
2023-03-02T01:08:45.854Z,71.02
2023-03-02T01:11:19.005Z,70.68
2023-03-02T01:13:46.496Z,70.55
2023-03-02T01:16:14.733Z,69.94
2023-03-02T01:18:42.248Z,70.53
2023-03-02T01:21:13.571Z,69.42
2023-03-02T01:23:42.157Z,68.80
2023-03-02T01:26:09.952Z,68.58
2023-03-02T01:28:37.439Z,67.78
2023-03-02T01:31:05.075Z,68.40
2023-03-02T01:33:32.865Z,67.89
2023-03-02T01:36:00.643Z,67.89
2023-03-02T01:38:28.788Z,67.86
2023-03-02T01:40:56.616Z,68.13
2023-03-02T01:43:24.208Z,68.45
2023-03-02T01:45:59.473Z,68.57
2023-03-02T01:48:43.011Z,68.29
2023-03-02T01:51:14.851Z,67.92
2023-03-02T01:53:46.881Z,68.46
2023-03-02T01:56:21.719Z,68.25
2023-03-02T01:58:52.934Z,69.23
2023-03-02T02:01:21.913Z,68.89
2023-03-02T02:03:50.996Z,71.01
2023-03-02T02:06:24.411Z,71.18
2023-03-02T02:08:56.099Z,71.96
2023-03-02T02:11:24.681Z,72.44
2023-03-02T02:13:58.976Z,73.47
2023-03-02T02:16:28.807Z,74.71
2023-03-02T02:18:56.431Z,75.05
2023-03-02T02:21:26.144Z,75.23
2023-03-02T02:24:14.172Z,76.32
2023-03-02T02:26:56.299Z,76.74
2023-03-02T02:29:34.641Z,77.74
2023-03-02T02:32:23.557Z,79.36
2023-03-02T02:34:56.853Z,79.88
2023-03-02T02:37:32.967Z,80.38
2023-03-02T02:40:07.474Z,80.84
2023-03-02T02:42:40.824Z,82.18
2023-03-02T02:45:20.915Z,81.75
2023-03-02T02:47:49.635Z,82.47
2023-03-02T02:50:20.968Z,81.75
2023-03-02T02:52:55.509Z,82.50
2023-03-02T02:55:24.597Z,83.72
2023-03-02T02:57:56.444Z,83.34
2023-03-02T03:00:24.206Z,83.89
2023-03-02T03:03:06.448Z,83.75
2023-03-02T03:05:33.798Z,84.71
2023-03-02T03:08:09.859Z,84.55
2023-03-02T03:10:41.038Z,84.92
2023-03-02T03:13:11.491Z,84.83
2023-03-02T03:15:39.361Z,85.80
2023-03-02T03:18:06.738Z,85.02
2023-03-02T03:20:34.152Z,84.46
2023-03-02T03:23:01.561Z,84.16
2023-03-02T03:25:32.152Z,84.17
2023-03-02T03:28:00.275Z,84.94
2023-03-02T03:30:27.689Z,85.76
2023-03-02T03:32:55.462Z,85.45
2023-03-02T03:35:23.062Z,85.96
2023-03-02T03:37:51.735Z,85.40
2023-03-02T03:40:20.096Z,85.65
2023-03-02T03:42:48.431Z,85.91
2023-03-02T03:45:15.879Z,86.37
2023-03-02T03:47:44.738Z,85.68
2023-03-02T03:50:12.719Z,87.59
2023-03-02T03:52:41.068Z,86.63
2023-03-02T03:55:14.289Z,86.63
2023-03-02T03:57:43.559Z,86.31
2023-03-02T04:00:17.395Z,86.20
2023-03-02T04:02:53.274Z,87.08
2023-03-02T04:05:21.368Z,86.49
2023-03-02T04:07:51.996Z,86.44
2023-03-02T04:10:20.119Z,86.80
2023-03-02T04:12:48.339Z,87.20
2023-03-02T04:15:16.772Z,87.40
2023-03-02T04:17:45.980Z,87.54
2023-03-02T04:20:16.935Z,88.77
2023-03-02T04:22:49.961Z,88.72
2023-03-02T04:25:20.254Z,89.23
2023-03-02T04:27:49.964Z,88.93
2023-03-02T04:30:20.221Z,89.21
2023-03-02T04:32:47.929Z,90.44
2023-03-02T04:35:16.171Z,89.46
2023-03-02T04:37:44.688Z,89.53
2023-03-02T04:40:12.907Z,89.91
2023-03-02T04:42:40.305Z,90.32
2023-03-02T04:45:09.151Z,90.79
2023-03-02T04:47:36.479Z,91.00
2023-03-02T04:50:04.243Z,91.21
2023-03-02T04:52:31.653Z,91.40
2023-03-02T04:54:59.018Z,91.01
2023-03-02T04:57:26.428Z,91.46
2023-03-02T04:59:53.724Z,91.71
2023-03-02T05:02:21.057Z,92.17
2023-03-02T05:04:48.378Z,92.45
2023-03-02T05:07:15.748Z,92.05
2023-03-02T05:09:43.122Z,91.91
2023-03-02T05:12:13.641Z,91.94
2023-03-02T05:14:41.201Z,92.97
2023-03-02T05:17:08.680Z,92.60
2023-03-02T05:19:36.046Z,92.18
2023-03-02T05:22:03.456Z,92.59
2023-03-02T05:24:30.905Z,93.49
2023-03-02T05:26:58.303Z,93.60
2023-03-02T05:29:25.725Z,93.67
2023-03-02T05:31:53.380Z,94.07
2023-03-02T05:34:21.076Z,93.92
2023-03-02T05:36:48.588Z,94.03
2023-03-02T05:39:16.022Z,93.31
2023-03-02T05:41:43.531Z,93.42
2023-03-02T05:44:12.591Z,93.97
2023-03-02T05:46:40.361Z,94.08
2023-03-02T05:49:07.788Z,93.48
2023-03-02T05:51:35.236Z,93.39
2023-03-02T05:54:02.570Z,94.42
2023-03-02T05:56:30.291Z,93.85
2023-03-02T05:58:57.853Z,94.38
2023-03-02T06:01:25.333Z,94.65
2023-03-02T06:03:52.776Z,94.85
2023-03-02T06:06:20.169Z,94.75
2023-03-02T06:08:47.608Z,94.03
2023-03-02T06:11:15.022Z,93.96
2023-03-02T06:13:42.442Z,94.01
2023-03-02T06:16:09.944Z,93.70
2023-03-02T06:18:40.356Z,93.29
2023-03-02T06:21:09.258Z,93.34
2023-03-02T06:23:36.642Z,92.98
2023-03-02T06:26:09.390Z,93.42
2023-03-02T06:28:49.618Z,93.67
2023-03-02T06:31:17.535Z,93.02
2023-03-02T06:33:44.896Z,92.82
2023-03-02T06:36:12.750Z,94.02
2023-03-02T06:38:40.283Z,93.12
2023-03-02T06:41:07.640Z,92.81
2023-03-02T06:43:35.173Z,93.15
2023-03-02T06:46:02.847Z,93.23
2023-03-02T06:48:30.329Z,93.45
2023-03-02T06:50:57.797Z,94.34
2023-03-02T06:53:25.138Z,93.73
2023-03-02T06:55:52.969Z,94.08
2023-03-02T06:58:20.437Z,94.64
2023-03-02T07:00:47.920Z,93.88
2023-03-02T07:03:15.472Z,94.08
2023-03-02T07:05:45.729Z,93.07
2023-03-02T07:08:14.132Z,93.05
2023-03-02T07:10:41.710Z,93.55
2023-03-02T07:13:09.482Z,93.70
2023-03-02T07:15:39.640Z,92.95
2023-03-02T07:18:07.237Z,91.48
2023-03-02T07:20:34.835Z,92.20
2023-03-02T07:23:02.162Z,91.46
2023-03-02T07:25:29.501Z,91.71
2023-03-02T07:27:56.841Z,91.93
2023-03-02T07:30:24.418Z,90.76
2023-03-02T07:32:51.762Z,90.66
2023-03-02T07:35:19.191Z,90.30
2023-03-02T07:37:46.515Z,90.02
2023-03-02T07:40:14.282Z,88.75
2023-03-02T07:42:41.631Z,88.74
2023-03-02T07:45:11.449Z,89.02
2023-03-02T07:47:38.709Z,89.48
2023-03-02T07:50:06.561Z,87.70
2023-03-02T07:52:33.898Z,86.90
2023-03-02T07:55:01.230Z,86.99
2023-03-02T07:57:28.545Z,87.24
2023-03-02T07:59:55.871Z,87.30
2023-03-02T08:02:25.784Z,87.97
2023-03-02T08:04:53.425Z,87.28
2023-03-02T08:07:22.094Z,86.77
2023-03-02T08:09:49.502Z,86.76
2023-03-02T08:12:17.642Z,86.92
2023-03-02T08:14:47.663Z,86.45
2023-03-02T08:17:14.997Z,85.74
2023-03-02T08:19:42.335Z,87.19
2023-03-02T08:22:09.648Z,86.14
2023-03-02T08:24:37.609Z,85.38
2023-03-02T08:27:05.111Z,84.23
2023-03-02T08:29:32.672Z,83.08
2023-03-02T08:32:00.609Z,82.60
2023-03-02T08:34:28.187Z,82.21
2023-03-02T08:36:55.601Z,81.74
2023-03-02T08:39:23.652Z,81.28
2023-03-02T08:41:52.373Z,79.69
2023-03-02T08:44:22.316Z,79.63
2023-03-02T08:46:50.741Z,79.10
2023-03-02T08:49:19.556Z,79.06
2023-03-02T08:51:49.083Z,77.33
2023-03-02T08:54:16.453Z,77.18
2023-03-02T08:56:44.581Z,73.98
2023-03-02T08:59:13.476Z,75.54
2023-03-02T09:01:41.827Z,75.33
2023-03-02T09:04:10.648Z,75.82
2023-03-02T09:06:43.427Z,72.20
2023-03-02T09:09:12.671Z,73.66
2023-03-02T09:11:40.608Z,74.27
2023-03-02T09:14:08.402Z,72.69
2023-03-02T09:16:35.865Z,68.55
2023-03-02T09:19:03.379Z,67.83
2023-03-02T09:21:31.003Z,67.58
2023-03-02T09:23:58.660Z,67.82
2023-03-02T09:26:27.087Z,69.38
2023-03-02T09:28:55.235Z,70.07
2023-03-02T09:31:23.026Z,68.53
2023-03-02T09:33:50.609Z,67.12
2023-03-02T09:36:23.695Z,67.48
2023-03-02T09:38:51.245Z,68.11
2023-03-02T09:41:21.975Z,67.55
2023-03-02T09:44:23.808Z,66.17
2023-03-02T09:46:56.235Z,66.10
2023-03-02T09:49:32.540Z,67.49
2023-03-02T09:52:14.874Z,66.46
2023-03-02T09:54:42.921Z,66.23
2023-03-02T09:57:43.062Z,66.68
2023-03-02T10:00:19.149Z,66.26
2023-03-02T10:03:11.407Z,65.10
2023-03-02T10:05:46.301Z,65.92
2023-03-02T10:08:36.537Z,66.19
2023-03-02T10:11:37.502Z,66.15
2023-03-02T10:14:18.168Z,65.20
2023-03-02T10:16:49.763Z,65.57
2023-03-02T10:19:32.427Z,65.39
2023-03-02T10:22:27.118Z,64.57
2023-03-02T10:25:34.210Z,64.62
2023-03-02T10:28:20.191Z,64.40
2023-03-02T10:31:36.917Z,64.53
2023-03-02T10:34:04.330Z,65.37
2023-03-02T10:36:40.940Z,65.39
2023-03-02T10:39:14.255Z,65.53
2023-03-02T10:41:47.246Z,66.00
2023-03-02T10:44:21.910Z,66.21
2023-03-02T10:46:49.342Z,61.50
2023-03-02T10:49:39.431Z,61.73
2023-03-02T10:52:14.620Z,63.54
2023-03-02T10:54:42.682Z,60.75
2023-03-02T10:57:21.862Z,60.98
2023-03-02T10:59:51.986Z,59.98
2023-03-02T11:02:23.221Z,60.42
2023-03-02T11:05:20.789Z,60.31
2023-03-02T11:07:56.360Z,61.05
2023-03-02T11:10:27.588Z,60.26
2023-03-02T11:12:55.268Z,60.17
2023-03-02T11:15:45.846Z,61.02
2023-03-02T11:18:32.005Z,61.23
2023-03-02T11:21:04.636Z,60.92
2023-03-02T11:23:43.882Z,61.38
2023-03-02T11:26:18.104Z,60.62
2023-03-02T11:28:51.458Z,60.40
2023-03-02T11:31:26.468Z,60.39
2023-03-02T11:34:17.297Z,61.59
2023-03-02T11:36:57.756Z,60.40
2023-03-02T11:39:53.329Z,60.90
2023-03-02T11:42:30.877Z,61.47
2023-03-02T11:45:03.879Z,60.92
2023-03-02T11:47:32.877Z,60.23
2023-03-02T11:50:07.599Z,60.58
2023-03-02T11:52:39.019Z,61.06
2023-03-02T11:55:18.446Z,60.71
2023-03-02T11:57:52.275Z,60.22
2023-03-02T12:00:39.230Z,60.59
2023-03-02T12:03:15.590Z,60.39
2023-03-02T12:05:45.767Z,60.73
2023-03-02T12:08:18.986Z,61.08
2023-03-02T12:11:18.758Z,60.53
2023-03-02T12:13:59.124Z,59.38
2023-03-02T12:16:32.769Z,58.94
2023-03-02T12:19:16.617Z,58.84
2023-03-02T12:21:58.097Z,58.80
2023-03-02T12:24:31.214Z,58.06
2023-03-02T12:27:08.163Z,57.61
2023-03-02T12:29:48.060Z,57.41
2023-03-02T12:32:27.418Z,58.20
2023-03-02T12:35:03.064Z,58.78
2023-03-02T12:37:44.853Z,58.22
2023-03-02T12:40:30.547Z,57.49
2023-03-02T12:43:16.274Z,58.64
2023-03-02T12:45:57.787Z,56.30
2023-03-02T12:48:30.389Z,56.79
2023-03-02T12:51:04.103Z,58.12
2023-03-02T12:53:32.159Z,58.30
2023-03-02T12:55:59.558Z,57.94
2023-03-02T12:58:28.893Z,56.44
2023-03-02T13:01:00.228Z,58.14
2023-03-02T13:03:30.228Z,59.34
2023-03-02T13:06:13.495Z,57.07
2023-03-02T13:08:44.693Z,57.14
2023-03-02T13:11:12.511Z,56.72
2023-03-02T13:13:45.230Z,56.99
2023-03-02T13:16:24.521Z,57.13
2023-03-02T13:18:57.598Z,56.71
2023-03-02T13:21:32.544Z,57.19
2023-03-02T13:24:01.318Z,57.29
2023-03-02T13:26:34.978Z,56.50
2023-03-02T13:29:14.738Z,56.40
2023-03-02T13:31:42.701Z,56.70
2023-03-02T13:34:27.721Z,56.70
2023-03-02T13:36:55.392Z,57.80
2023-03-02T13:39:28.896Z,57.94
2023-03-02T13:41:58.989Z,57.90
2023-03-02T13:44:32.069Z,58.90
2023-03-02T13:47:00.497Z,58.56
2023-03-02T13:49:35.942Z,59.28
2023-03-02T13:52:08.419Z,58.98
2023-03-02T13:54:37.701Z,59.67
2023-03-02T13:57:06.290Z,59.61
2023-03-02T13:59:36.451Z,59.16
2023-03-02T14:02:21.172Z,58.53
2023-03-02T14:04:48.653Z,58.43
2023-03-02T14:07:17.599Z,59.01
2023-03-02T14:09:45.352Z,58.43
2023-03-02T14:12:24.401Z,58.28
2023-03-02T14:14:54.675Z,58.05
2023-03-02T14:17:24.768Z,57.66
2023-03-02T14:19:53.118Z,57.80
2023-03-02T14:22:21.580Z,57.97
2023-03-02T14:24:49.278Z,57.85
2023-03-02T14:27:18.466Z,59.15
2023-03-02T14:29:46.844Z,58.27
2023-03-02T14:32:15.544Z,58.29
2023-03-02T14:34:43.348Z,57.46
2023-03-02T14:37:16.722Z,57.19
2023-03-02T14:39:54.313Z,57.13
2023-03-02T14:42:23.387Z,57.45
2023-03-02T14:44:51.690Z,56.86
2023-03-02T14:47:19.652Z,57.08
2023-03-02T14:49:48.970Z,56.51
2023-03-02T14:52:24.681Z,56.21
2023-03-02T14:54:57.887Z,56.56
2023-03-02T14:57:27.970Z,55.84
2023-03-02T14:59:56.206Z,56.43
2023-03-02T15:02:26.746Z,56.51
2023-03-02T15:04:57.166Z,56.30
2023-03-02T15:07:28.746Z,55.72
2023-03-02T15:09:57.201Z,55.30
2023-03-02T15:12:25.245Z,55.14
2023-03-02T15:14:52.639Z,55.02
2023-03-02T15:17:20.194Z,55.11
2023-03-02T15:19:47.928Z,55.10
2023-03-02T15:22:15.805Z,55.74
2023-03-02T15:24:43.359Z,55.56
2023-03-02T15:27:10.872Z,55.81
2023-03-02T15:29:38.287Z,55.98
2023-03-02T15:32:05.921Z,56.03
2023-03-02T15:34:33.345Z,55.48
2023-03-02T15:37:00.670Z,56.46
2023-03-02T15:39:27.981Z,56.92
2023-03-02T15:41:55.402Z,57.19
2023-03-02T15:44:24.816Z,57.65
2023-03-02T15:46:57.417Z,57.10
2023-03-02T15:49:28.509Z,56.78
2023-03-02T15:51:58.079Z,56.58
2023-03-02T15:54:26.464Z,56.91
2023-03-02T15:56:54.673Z,57.05
2023-03-02T15:59:24.156Z,57.32
2023-03-02T16:01:52.277Z,58.07
2023-03-02T16:04:19.924Z,58.18
2023-03-02T16:06:47.429Z,60.43
2023-03-02T16:09:16.740Z,61.96
2023-03-02T16:11:44.200Z,63.19
2023-03-02T16:14:15.950Z,63.40
2023-03-02T16:16:44.159Z,64.88
2023-03-02T16:19:13.455Z,63.94
2023-03-02T16:21:41.451Z,64.00
2023-03-02T16:24:09.683Z,64.51
2023-03-02T16:26:38.258Z,64.53
2023-03-02T16:29:08.070Z,64.02
2023-03-02T16:31:38.001Z,64.40
2023-03-02T16:34:09.371Z,64.36
2023-03-02T16:36:38.921Z,64.29
2023-03-02T16:39:07.982Z,64.93
2023-03-02T16:41:35.947Z,64.65
2023-03-02T16:44:03.615Z,64.85
2023-03-02T16:46:36.384Z,65.03
2023-03-02T16:49:04.931Z,65.54
2023-03-02T16:51:32.790Z,65.73
2023-03-02T16:54:00.887Z,65.86
2023-03-02T16:56:47.613Z,66.31
2023-03-02T16:59:15.492Z,66.09
2023-03-02T17:01:48.561Z,66.27
2023-03-02T17:04:18.428Z,66.43
2023-03-02T17:06:59.933Z,67.34
2023-03-02T17:09:28.398Z,67.31
2023-03-02T17:11:56.539Z,67.44
2023-03-02T17:14:24.014Z,67.79
2023-03-02T17:16:51.375Z,68.04
2023-03-02T17:19:18.751Z,68.45
2023-03-02T17:21:46.187Z,68.55
2023-03-02T17:24:13.906Z,69.51
2023-03-02T17:26:41.292Z,69.19
2023-03-02T17:29:08.693Z,69.02
2023-03-02T17:31:36.267Z,68.86
2023-03-02T17:34:03.637Z,68.78
2023-03-02T17:36:36.622Z,69.14
2023-03-02T17:39:05.308Z,68.27
2023-03-02T17:41:34.428Z,68.42
2023-03-02T17:44:03.433Z,68.77
2023-03-02T17:46:32.599Z,69.42
2023-03-02T17:49:00.924Z,69.95
2023-03-02T17:51:29.029Z,69.52
2023-03-02T17:53:56.903Z,69.35
2023-03-02T17:56:26.920Z,69.12
2023-03-02T17:59:00.621Z,69.59
2023-03-02T18:01:29.644Z,69.55
2023-03-02T18:03:57.095Z,69.93
2023-03-02T18:06:24.756Z,69.73
2023-03-02T18:08:52.428Z,70.86
2023-03-02T18:11:23.045Z,70.56
2023-03-02T18:13:58.057Z,70.58
2023-03-02T18:16:27.928Z,70.60
2023-03-02T18:18:57.251Z,71.46
2023-03-02T18:21:24.795Z,71.46
2023-03-02T18:23:52.351Z,72.03
2023-03-02T18:26:20.192Z,72.38
2023-03-02T18:28:47.585Z,72.65
2023-03-02T18:31:17.149Z,73.06
2023-03-02T18:33:45.117Z,72.62
2023-03-02T18:36:12.671Z,72.56
2023-03-02T18:38:40.497Z,72.91
2023-03-02T18:41:09.212Z,72.80
2023-03-02T18:43:40.088Z,73.05
2023-03-02T18:46:08.677Z,73.41
2023-03-02T18:48:37.500Z,73.05
2023-03-02T18:51:05.051Z,72.88
2023-03-02T18:53:34.025Z,73.51
2023-03-02T18:56:01.683Z,73.76
2023-03-02T18:58:34.088Z,74.07
2023-03-02T19:01:02.236Z,73.66
2023-03-02T19:03:30.064Z,73.56
2023-03-02T19:05:58.358Z,73.32
2023-03-02T19:08:26.199Z,73.29
2023-03-02T19:10:54.568Z,73.38
2023-03-02T19:13:22.208Z,73.16
2023-03-02T19:15:49.699Z,73.84
2023-03-02T19:18:19.513Z,74.11
2023-03-02T19:20:48.438Z,73.03
2023-03-02T19:23:17.194Z,73.19
2023-03-02T19:25:48.468Z,74.46
2023-03-02T19:28:16.290Z,73.63
2023-03-02T19:30:43.749Z,73.63
2023-03-02T19:33:11.147Z,73.70
2023-03-02T19:35:39.310Z,74.16
2023-03-02T19:38:07.836Z,73.65
2023-03-02T19:40:36.419Z,74.37
2023-03-02T19:43:05.296Z,75.45
2023-03-02T19:45:34.891Z,75.21
2023-03-02T19:48:03.938Z,75.53
2023-03-02T19:50:31.858Z,75.97
2023-03-02T19:52:59.352Z,76.03
2023-03-02T19:55:27.209Z,76.09
2023-03-02T19:58:00.257Z,76.23
2023-03-02T20:00:30.499Z,76.34
2023-03-02T20:02:58.698Z,77.04
2023-03-02T20:05:27.628Z,77.63
2023-03-02T20:07:55.668Z,77.58
2023-03-02T20:10:29.076Z,77.84
2023-03-02T20:12:56.555Z,77.48
2023-03-02T20:15:23.928Z,77.99
2023-03-02T20:17:51.459Z,78.39
2023-03-02T20:20:18.890Z,78.50
2023-03-02T20:22:46.405Z,79.70
2023-03-02T20:25:14.548Z,79.92
2023-03-02T20:27:42.441Z,79.70
2023-03-02T20:30:13.673Z,79.45
2023-03-02T20:32:42.021Z,80.33
2023-03-02T20:35:10.815Z,80.27
2023-03-02T20:37:38.676Z,80.87
2023-03-02T20:40:08.837Z,81.06
2023-03-02T20:42:39.013Z,81.49
2023-03-02T20:45:09.103Z,81.42
2023-03-02T20:47:36.844Z,81.75
2023-03-02T20:50:08.265Z,81.86
2023-03-02T20:52:37.045Z,82.15
2023-03-02T20:55:06.173Z,81.51
2023-03-02T20:57:35.196Z,81.36
2023-03-02T21:00:09.434Z,81.25
2023-03-02T21:02:38.932Z,81.65
2023-03-02T21:05:06.901Z,81.69
2023-03-02T21:07:35.864Z,81.38
2023-03-02T21:10:09.887Z,81.33
2023-03-02T21:12:37.447Z,81.53
2023-03-02T21:15:07.224Z,81.32
2023-03-02T21:17:35.654Z,82.38
2023-03-02T21:20:03.700Z,82.15
2023-03-02T21:22:31.098Z,82.14
2023-03-02T21:24:58.405Z,82.49
2023-03-02T21:27:25.890Z,82.41
2023-03-02T21:29:53.179Z,83.79
2023-03-02T21:32:20.563Z,83.34
2023-03-02T21:34:47.899Z,83.61
2023-03-02T21:37:15.215Z,83.38
2023-03-02T21:39:42.510Z,83.17
2023-03-02T21:42:09.846Z,83.71
2023-03-02T21:44:37.186Z,84.21
2023-03-02T21:47:04.493Z,83.40
2023-03-02T21:49:32.047Z,82.98
2023-03-02T21:51:59.531Z,83.40
2023-03-02T21:54:26.856Z,83.30
2023-03-02T21:56:54.160Z,82.96
2023-03-02T21:59:21.475Z,83.10
2023-03-02T22:01:48.891Z,82.51
2023-03-02T22:04:16.367Z,82.86
2023-03-02T22:06:43.680Z,83.09
2023-03-02T22:09:11.582Z,83.76
2023-03-02T22:11:38.888Z,83.78
2023-03-02T22:14:14.982Z,83.70
2023-03-02T22:16:46.853Z,84.08
2023-03-02T22:19:25.473Z,83.93
2023-03-02T22:21:55.474Z,84.50
2023-03-02T22:24:28.855Z,84.35
2023-03-02T22:27:05.321Z,84.99
2023-03-02T22:29:40.299Z,84.41
2023-03-02T22:32:23.155Z,84.80
2023-03-02T22:34:56.487Z,83.82
2023-03-02T22:37:27.025Z,84.45
2023-03-02T22:40:01.357Z,84.34
2023-03-02T22:42:31.482Z,84.51
2023-03-02T22:44:58.808Z,83.94
2023-03-02T22:47:27.168Z,83.95
2023-03-02T22:50:00.394Z,83.60
2023-03-02T22:52:37.093Z,84.33
2023-03-02T22:55:36.263Z,84.25
2023-03-02T22:58:36.387Z,83.66
2023-03-02T23:01:18.028Z,83.18
2023-03-02T23:03:47.138Z,82.69
2023-03-02T23:06:33.024Z,82.90
2023-03-02T23:09:06.648Z,83.41
2023-03-02T23:11:38.231Z,83.52
2023-03-02T23:14:37.902Z,84.60
2023-03-02T23:17:14.067Z,86.19
2023-03-02T23:19:41.458Z,85.99
2023-03-02T23:22:09.193Z,86.29
2023-03-02T23:24:37.043Z,85.23
2023-03-02T23:27:04.496Z,85.09
2023-03-02T23:29:32.100Z,85.89
2023-03-02T23:31:59.633Z,86.08
2023-03-02T23:34:31.002Z,86.09
2023-03-02T23:36:59.574Z,85.69
2023-03-02T23:39:27.204Z,84.41
2023-03-02T23:41:54.965Z,84.16
2023-03-02T23:44:22.376Z,83.47
2023-03-02T23:46:50.179Z,84.53
2023-03-02T23:49:19.159Z,84.10
2023-03-02T23:51:46.899Z,84.55
2023-03-02T23:54:15.035Z,83.81
2023-03-02T23:56:42.369Z,84.22
2023-03-02T23:59:09.920Z,83.83
